createdAt,value
2019-04-11T00:00:53.958Z,7.95
2019-04-11T00:03:23.248Z,8.00
2019-04-11T00:05:52.871Z,7.97
2019-04-11T00:08:22.124Z,7.93
2019-04-11T00:10:51.332Z,8.10
2019-04-11T00:13:25.195Z,8.35
2019-04-11T00:15:51.453Z,8.30
2019-04-11T00:18:20.865Z,8.43
2019-04-11T00:20:50.617Z,8.20
2019-04-11T00:23:19.927Z,8.10
2019-04-11T00:25:49.602Z,8.48
2019-04-11T00:28:18.803Z,8.63
2019-04-11T00:30:48.348Z,8.48
2019-04-11T00:33:18.197Z,8.50
2019-04-11T00:35:48.075Z,8.83
2019-04-11T00:38:18.041Z,8.33
2019-04-11T00:40:47.308Z,8.38
2019-04-11T00:43:29.858Z,8.30
2019-04-11T00:45:47.999Z,8.65
2019-04-11T00:48:17.627Z,8.88
2019-04-11T00:50:47.614Z,8.58
2019-04-11T00:53:18.883Z,8.40
2019-04-11T00:55:48.124Z,8.25
2019-04-11T00:58:17.368Z,8.53
2019-04-11T01:00:47.121Z,8.53
2019-04-11T01:03:16.324Z,8.55
2019-04-11T01:05:47.751Z,8.40
2019-04-11T01:08:17.722Z,8.37
2019-04-11T01:10:47.818Z,8.68
2019-04-11T01:13:17.588Z,8.57
2019-04-11T01:15:54.643Z,8.70
2019-04-11T01:18:23.851Z,8.53
2019-04-11T01:20:53.690Z,9.00
2019-04-11T01:23:22.861Z,8.78
2019-04-11T01:25:53.504Z,9.20
2019-04-11T01:28:22.734Z,9.40
2019-04-11T01:31:01.064Z,8.78
2019-04-11T01:33:30.341Z,9.18
2019-04-11T01:35:59.545Z,8.83
2019-04-11T01:38:30.459Z,8.88
2019-04-11T01:41:00.286Z,9.03
2019-04-11T01:43:30.674Z,8.93
2019-04-11T01:46:00.138Z,9.20
2019-04-11T01:48:41.719Z,9.10
2019-04-11T01:51:11.630Z,8.60
2019-04-11T01:53:42.284Z,9.40
2019-04-11T01:56:13.425Z,9.65
2019-04-11T01:58:42.760Z,9.43
2019-04-11T02:01:25.081Z,9.58
2019-04-11T02:04:13.989Z,9.60
2019-04-11T02:06:43.530Z,9.73
2019-04-11T02:09:15.737Z,9.28
2019-04-11T02:11:45.729Z,9.45
2019-04-11T02:14:16.925Z,10.05
2019-04-11T02:16:45.827Z,10.05
2019-04-11T02:19:16.162Z,10.70
2019-04-11T02:21:46.226Z,10.18
2019-04-11T02:24:22.139Z,9.90
2019-04-11T02:27:16.838Z,10.13
2019-04-11T02:29:46.763Z,10.88
2019-04-11T02:32:15.970Z,10.48
2019-04-11T02:34:46.093Z,11.15
2019-04-11T02:37:17.328Z,9.53
2019-04-11T02:39:47.274Z,8.77
2019-04-11T02:42:17.104Z,9.20
2019-04-11T02:45:03.473Z,9.10
2019-04-11T02:47:22.894Z,8.57
2019-04-11T02:49:49.600Z,8.57
2019-04-11T02:52:19.558Z,9.07
2019-04-11T02:54:49.305Z,8.77
2019-04-11T02:57:18.919Z,9.33
2019-04-11T02:59:49.053Z,9.20
2019-04-11T03:02:19.549Z,9.30
2019-04-11T03:04:50.936Z,9.30
2019-04-11T03:07:22.723Z,9.30
2019-04-11T03:09:53.569Z,9.13
2019-04-11T03:12:24.061Z,10.07
2019-04-11T03:15:13.023Z,9.87
2019-04-11T03:17:33.114Z,9.50
2019-04-11T03:20:09.420Z,9.53
2019-04-11T03:22:29.907Z,9.43
2019-04-11T03:25:00.310Z,10.03
2019-04-11T03:27:30.524Z,9.80
2019-04-11T03:30:00.751Z,9.50
2019-04-11T03:33:16.646Z,10.57
2019-04-11T03:36:01.263Z,9.27
2019-04-11T03:40:27.072Z,10.93
2019-04-11T03:42:50.274Z,9.93
2019-04-11T03:45:25.862Z,10.13
2019-04-11T03:47:52.521Z,10.10
2019-04-11T03:50:15.336Z,9.73
2019-04-11T03:52:40.779Z,10.00
2019-04-11T03:55:11.137Z,11.07
2019-04-11T03:57:41.724Z,10.30
2019-04-11T04:00:14.273Z,10.83
2019-04-11T04:02:42.181Z,13.53
2019-04-11T04:05:13.161Z,13.95
2019-04-11T04:07:44.184Z,13.85
2019-04-11T04:10:19.804Z,13.15
2019-04-11T04:12:48.914Z,12.80
2019-04-11T04:15:55.833Z,11.87
2019-04-11T04:18:48.395Z,11.10
2019-04-11T04:21:31.145Z,11.30
2019-04-11T04:24:03.697Z,10.70
2019-04-11T04:26:33.565Z,11.43
2019-04-11T04:29:04.422Z,11.17
2019-04-11T04:31:34.998Z,11.43
2019-04-11T04:34:04.259Z,11.67
2019-04-11T04:36:34.797Z,11.83
2019-04-11T04:39:05.728Z,12.47
2019-04-11T04:41:44.043Z,12.17
2019-04-11T04:44:08.549Z,11.90
2019-04-11T04:46:52.584Z,12.07
2019-04-11T04:49:11.006Z,12.37
2019-04-11T04:51:41.571Z,12.80
2019-04-11T04:54:12.124Z,12.30
2019-04-11T04:56:43.099Z,16.67
2019-04-11T04:59:14.063Z,17.37
2019-04-11T05:01:44.283Z,17.12
2019-04-11T05:04:15.757Z,17.50
2019-04-11T05:06:48.219Z,16.50
2019-04-11T05:09:15.934Z,17.20
2019-04-11T05:11:46.520Z,16.42
2019-04-11T05:14:15.818Z,16.80
2019-04-11T05:16:46.180Z,17.25
2019-04-11T05:19:15.325Z,16.48
2019-04-11T05:21:45.465Z,16.25
2019-04-11T05:24:14.746Z,16.95
2019-04-11T05:26:44.093Z,16.17
2019-04-11T05:29:13.265Z,16.80
2019-04-11T05:31:42.783Z,17.00
2019-04-11T05:34:11.999Z,16.52
2019-04-11T05:36:41.158Z,17.15
2019-04-11T05:39:10.701Z,17.05
2019-04-11T05:41:43.078Z,17.02
2019-04-11T05:44:11.019Z,17.30
2019-04-11T05:46:49.198Z,16.95
2019-04-11T05:49:21.180Z,16.65
2019-04-11T05:52:02.192Z,16.73
2019-04-11T05:54:38.687Z,17.23
2019-04-11T05:57:07.137Z,17.00
2019-04-11T05:59:37.063Z,17.40
2019-04-11T06:02:17.088Z,16.95
2019-04-11T06:04:54.894Z,15.98
2019-04-11T06:07:27.305Z,17.10
2019-04-11T06:10:06.028Z,16.90
2019-04-11T06:13:02.937Z,16.45
2019-04-11T06:15:36.277Z,16.20
2019-04-11T06:18:25.214Z,16.15
2019-04-11T06:20:49.361Z,16.55
2019-04-11T06:23:45.573Z,16.93
2019-04-11T06:26:47.046Z,17.10
2019-04-11T06:29:35.156Z,16.17
2019-04-11T06:32:21.763Z,15.95
2019-04-11T06:34:57.732Z,16.20
2019-04-11T06:37:45.908Z,15.80
2019-04-11T06:40:38.964Z,15.60
2019-04-11T06:43:16.989Z,14.78
2019-04-11T06:46:09.017Z,15.78
2019-04-11T06:48:53.923Z,14.95
2019-04-11T06:51:37.815Z,14.70
2019-04-11T06:54:16.972Z,15.03
2019-04-11T06:56:47.743Z,14.83
2019-04-11T06:59:23.945Z,14.70
2019-04-11T07:01:53.214Z,15.32
2019-04-11T07:04:25.837Z,14.33
2019-04-11T07:06:56.139Z,14.93
2019-04-11T07:10:06.740Z,13.80
2019-04-11T07:12:45.584Z,13.93
2019-04-11T07:15:29.402Z,13.32
2019-04-11T07:18:16.221Z,13.20
2019-04-11T07:20:56.860Z,12.78
2019-04-11T07:23:44.686Z,12.47
2019-04-11T07:26:32.971Z,11.95
2019-04-11T07:29:23.943Z,12.30
2019-04-11T07:32:25.715Z,11.75
2019-04-11T07:35:12.987Z,11.70
2019-04-11T07:37:44.741Z,11.60
2019-04-11T07:40:36.649Z,11.90
2019-04-11T07:43:25.177Z,11.70
2019-04-11T07:46:17.056Z,11.53
2019-04-11T07:48:46.911Z,11.33
2019-04-11T07:51:23.918Z,11.25
2019-04-11T07:53:54.625Z,11.35
2019-04-11T07:56:58.698Z,11.40
2019-04-11T08:00:02.222Z,11.70
2019-04-11T08:03:08.497Z,10.48
2019-04-11T08:05:56.600Z,11.35
2019-04-11T08:09:02.800Z,11.40
2019-04-11T08:11:51.911Z,10.40
2019-04-11T08:14:59.327Z,11.20
2019-04-11T08:17:37.598Z,10.28
2019-04-11T08:20:33.223Z,10.18
2019-04-11T08:23:07.584Z,9.58
2019-04-11T08:26:07.410Z,9.68
2019-04-11T08:28:40.696Z,9.50
2019-04-11T08:31:48.689Z,9.85
2019-04-11T08:34:20.237Z,9.40
2019-04-11T08:37:11.607Z,9.50
2019-04-11T08:39:45.018Z,9.03
2019-04-11T08:42:40.676Z,9.35
2019-04-11T08:45:12.335Z,9.23
2019-04-11T08:47:52.140Z,9.90
2019-04-11T08:50:26.075Z,9.58
2019-04-11T08:53:32.959Z,8.83
2019-04-11T08:56:03.945Z,9.18
2019-04-11T08:58:53.750Z,9.10
2019-04-11T09:01:24.322Z,8.23
2019-04-11T09:04:13.601Z,8.40
2019-04-11T09:06:43.036Z,8.48
2019-04-11T09:09:47.500Z,8.83
2019-04-11T09:12:18.405Z,8.40
2019-04-11T09:15:10.732Z,8.50
2019-04-11T09:17:58.981Z,7.80
2019-04-11T09:20:40.041Z,8.50
2019-04-11T09:23:11.408Z,8.43
2019-04-11T09:25:59.658Z,8.50
2019-04-11T09:28:57.685Z,8.20
2019-04-11T09:31:48.679Z,8.68
2019-04-11T09:34:35.678Z,8.60
2019-04-11T09:37:36.007Z,8.55
2019-04-11T09:40:26.296Z,8.78
2019-04-11T09:43:13.078Z,9.30
2019-04-11T09:46:10.391Z,8.80
2019-04-11T09:48:57.819Z,8.73
2019-04-11T09:51:44.609Z,8.50
2019-04-11T09:54:21.093Z,8.58
2019-04-11T09:57:12.186Z,8.75
2019-04-11T09:59:51.763Z,8.38
2019-04-11T10:02:39.642Z,8.25
2019-04-11T10:05:09.560Z,8.30
2019-04-11T10:07:57.883Z,7.60
2019-04-11T10:10:46.591Z,7.55
2019-04-11T10:13:24.944Z,7.47
2019-04-11T10:16:16.295Z,6.40
2019-04-11T10:18:57.692Z,6.70
2019-04-11T10:21:26.926Z,7.53
2019-04-11T10:24:18.888Z,6.63
2019-04-11T10:26:52.029Z,7.53
2019-04-11T10:29:46.309Z,7.27
2019-04-11T10:32:17.031Z,6.03
2019-04-11T10:35:06.044Z,7.10
2019-04-11T10:37:37.937Z,6.90
2019-04-11T10:40:26.321Z,7.03
2019-04-11T10:42:55.985Z,6.53
2019-04-11T10:45:43.393Z,6.57
2019-04-11T10:48:13.875Z,6.30
2019-04-11T10:51:20.651Z,6.90
2019-04-11T10:53:53.748Z,7.23
2019-04-11T10:56:39.140Z,7.50
2019-04-11T10:59:09.130Z,7.60
2019-04-11T11:02:04.512Z,6.90
2019-04-11T11:04:39.485Z,7.03
2019-04-11T11:07:12.877Z,8.00
2019-04-11T11:10:09.217Z,7.80
2019-04-11T11:12:45.551Z,7.90
2019-04-11T11:15:29.106Z,7.87
2019-04-11T11:18:39.921Z,7.90
2019-04-11T11:20:58.452Z,7.33
2019-04-11T11:23:43.488Z,7.60
2019-04-11T11:26:19.762Z,7.60
2019-04-11T11:29:08.598Z,7.70
2019-04-11T11:31:40.871Z,7.07
2019-04-11T11:34:32.648Z,7.00
2019-04-11T11:37:22.883Z,7.47
2019-04-11T11:40:14.618Z,7.37
2019-04-11T11:42:58.761Z,7.60
2019-04-11T11:45:37.386Z,7.07
2019-04-11T11:48:23.121Z,7.33
2019-04-11T11:50:52.862Z,7.10
2019-04-11T11:53:33.048Z,6.87
2019-04-11T11:56:03.115Z,7.30
2019-04-11T11:58:57.792Z,7.87
2019-04-11T12:01:24.070Z,9.23
2019-04-11T12:04:11.352Z,7.53
2019-04-11T12:06:41.148Z,7.37
2019-04-11T12:09:28.710Z,8.30
2019-04-11T12:12:02.596Z,7.80
2019-04-11T12:14:53.839Z,7.30
2019-04-11T12:17:34.781Z,7.60
2019-04-11T12:20:13.396Z,8.33
2019-04-11T12:22:44.362Z,8.08
2019-04-11T12:25:22.911Z,8.78
2019-04-11T12:28:07.675Z,8.30
2019-04-11T12:31:00.561Z,8.07
2019-04-11T12:33:50.506Z,8.43
2019-04-11T12:36:23.007Z,8.75
2019-04-11T12:39:08.434Z,8.13
2019-04-11T12:42:07.376Z,8.78
2019-04-11T12:45:02.377Z,8.55
2019-04-11T12:47:39.318Z,8.53
2019-04-11T12:50:30.318Z,8.40
2019-04-11T12:53:06.009Z,8.20
2019-04-11T12:55:43.006Z,8.23
2019-04-11T12:58:33.264Z,8.38
2019-04-11T13:01:29.601Z,7.70
2019-04-11T13:04:15.577Z,8.35
2019-04-11T13:07:01.319Z,8.28
2019-04-11T13:09:38.793Z,7.95
2019-04-11T13:12:07.546Z,8.48
2019-04-11T13:14:42.332Z,7.80
2019-04-11T13:17:13.299Z,8.30
2019-04-11T13:20:04.547Z,8.38
2019-04-11T13:22:29.251Z,8.15
2019-04-11T13:25:25.660Z,8.40
2019-04-11T13:27:56.628Z,8.13
2019-04-11T13:30:54.046Z,8.05
2019-04-11T13:33:27.027Z,7.75
2019-04-11T13:36:20.178Z,7.92
2019-04-11T13:38:51.578Z,7.90
2019-04-11T13:41:37.231Z,7.43
2019-04-11T13:44:14.192Z,7.23
2019-04-11T13:46:54.058Z,8.03
2019-04-11T13:49:41.161Z,7.90
2019-04-11T13:52:28.316Z,8.03
2019-04-11T13:55:07.712Z,7.70
2019-04-11T13:57:57.689Z,7.47
2019-04-11T14:01:00.375Z,7.47
2019-04-11T14:03:47.610Z,6.87
2019-04-11T14:06:41.572Z,7.30
2019-04-11T14:09:14.519Z,6.70
2019-04-11T14:11:45.904Z,7.50
2019-04-11T14:14:35.745Z,7.55
2019-04-11T14:17:12.018Z,7.87
2019-04-11T14:20:12.157Z,7.80
2019-04-11T14:22:59.563Z,7.83
2019-04-11T14:25:49.698Z,11.78
2019-04-11T14:28:18.055Z,8.40
2019-04-11T14:31:09.237Z,7.87
2019-04-11T14:33:38.628Z,8.60
2019-04-11T14:36:33.523Z,7.65
2019-04-11T14:38:59.167Z,7.65
2019-04-11T14:41:52.131Z,7.75
2019-04-11T14:44:20.326Z,7.72
2019-04-11T14:47:11.298Z,8.03
2019-04-11T14:49:40.835Z,6.53
2019-04-11T14:52:31.070Z,8.03
2019-04-11T14:55:01.442Z,7.95
2019-04-11T14:57:40.395Z,7.93
2019-04-11T15:00:24.261Z,7.60
2019-04-11T15:03:14.168Z,7.63
2019-04-11T15:05:52.039Z,7.33
2019-04-11T15:08:32.901Z,8.07
2019-04-11T15:11:09.674Z,7.33
2019-04-11T15:13:38.218Z,7.57
2019-04-11T15:16:23.131Z,7.80
2019-04-11T15:18:55.878Z,7.53
2019-04-11T15:21:49.320Z,7.60
2019-04-11T15:24:18.333Z,7.40
2019-04-11T15:27:11.590Z,8.00
2019-04-11T15:29:40.693Z,7.60
2019-04-11T15:32:25.100Z,8.03
2019-04-11T15:34:55.770Z,7.93
2019-04-11T15:37:48.935Z,7.40
2019-04-11T15:40:32.547Z,7.00
2019-04-11T15:43:42.084Z,6.77
2019-04-11T15:46:27.206Z,13.73
2019-04-11T15:49:20.931Z,15.60
2019-04-11T15:51:46.243Z,11.87
2019-04-11T15:54:34.799Z,7.43
2019-04-11T15:57:12.711Z,7.13
2019-04-11T16:00:00.543Z,7.30
2019-04-11T16:02:57.032Z,6.03
2019-04-11T16:05:50.336Z,7.07
2019-04-11T16:08:46.908Z,7.13
2019-04-11T16:11:42.963Z,6.87
2019-04-11T16:14:29.023Z,6.80
2019-04-11T16:17:25.067Z,6.87
2019-04-11T16:20:11.093Z,6.90
2019-04-11T16:23:01.039Z,7.00
2019-04-11T16:25:29.799Z,6.93
2019-04-11T16:28:29.068Z,6.27
2019-04-11T16:30:58.714Z,6.33
2019-04-11T16:33:46.144Z,6.27
2019-04-11T16:36:20.532Z,6.17
2019-04-11T16:39:19.487Z,6.67
2019-04-11T16:42:10.413Z,5.70
2019-04-11T16:44:56.360Z,6.07
2019-04-11T16:47:42.200Z,6.43
2019-04-11T16:50:10.427Z,5.90
2019-04-11T16:52:39.212Z,6.03
2019-04-11T16:55:10.031Z,6.07
2019-04-11T16:57:37.601Z,5.93
2019-04-11T17:00:09.030Z,6.57
2019-04-11T17:02:37.049Z,6.20
2019-04-11T17:05:06.321Z,6.40
2019-04-11T17:07:53.893Z,6.30
2019-04-11T17:10:42.310Z,6.80
2019-04-11T17:13:10.712Z,6.75
2019-04-11T17:15:38.827Z,5.83
2019-04-11T17:18:06.900Z,6.37
2019-04-11T17:20:36.178Z,5.90
2019-04-11T17:23:04.949Z,5.70
2019-04-11T17:25:33.035Z,5.73
2019-04-11T17:28:01.130Z,6.37
2019-04-11T17:30:29.332Z,5.63
2019-04-11T17:32:57.489Z,5.47
2019-04-11T17:35:25.970Z,5.87
2019-04-11T17:37:54.060Z,5.73
2019-04-11T17:40:22.116Z,5.47
2019-04-11T17:42:50.223Z,6.20
2019-04-11T17:45:18.297Z,5.90
2019-04-11T18:00:05.155Z,5.07
2019-04-11T18:02:33.279Z,5.50
2019-04-11T18:07:28.440Z,5.27
2019-04-11T18:09:56.756Z,6.45
2019-04-11T18:12:26.197Z,6.00
2019-04-11T18:14:54.637Z,5.90
2019-04-11T18:17:22.741Z,5.60
2019-04-11T18:19:50.821Z,6.20
2019-04-11T18:22:18.964Z,6.07
2019-04-11T18:24:49.922Z,6.13
2019-04-11T18:27:17.094Z,6.60
2019-04-11T18:29:45.560Z,6.80
2019-04-11T18:32:13.702Z,5.80
2019-04-11T18:34:41.845Z,5.90
2019-04-11T18:37:10.044Z,5.67
2019-04-11T18:39:38.186Z,6.50
2019-04-11T18:42:06.691Z,6.50
2019-04-11T18:44:34.889Z,6.87
2019-04-11T18:47:03.195Z,6.22
2019-04-11T18:49:31.944Z,6.85
2019-04-11T18:52:00.696Z,5.83
2019-04-11T18:54:28.842Z,5.90
2019-04-11T18:56:57.093Z,6.17
2019-04-11T18:59:25.302Z,6.60
2019-04-11T19:01:53.892Z,5.70
2019-04-11T19:04:31.800Z,6.20
2019-04-11T19:06:52.076Z,6.00
2019-04-11T19:09:20.581Z,5.60
2019-04-11T19:11:51.432Z,5.60
2019-04-11T19:14:19.709Z,5.80
2019-04-11T19:16:48.338Z,5.60
2019-04-11T19:19:18.334Z,5.50
2019-04-11T19:21:50.721Z,5.63
2019-04-11T19:24:16.811Z,5.60
2019-04-11T19:26:46.422Z,5.40
2019-04-11T19:29:17.434Z,5.60
2019-04-11T19:31:45.657Z,5.60
2019-04-11T19:34:15.232Z,5.33
2019-04-11T19:36:43.497Z,5.30
2019-04-11T19:39:13.885Z,5.28
2019-04-11T19:41:41.571Z,5.60
2019-04-11T19:44:09.782Z,4.70
2019-04-11T19:46:37.921Z,5.12
2019-04-11T19:49:06.226Z,5.28
2019-04-11T19:51:34.529Z,5.00
2019-04-11T19:54:04.055Z,5.17
2019-04-11T19:56:36.931Z,5.00
2019-04-11T19:59:05.529Z,4.87
2019-04-11T20:01:33.750Z,5.00
2019-04-11T20:04:01.878Z,5.10
2019-04-11T20:06:30.040Z,5.08
2019-04-11T20:08:58.241Z,5.12
2019-04-11T20:11:26.428Z,5.15
2019-04-11T20:13:54.537Z,5.30
2019-04-11T20:16:22.701Z,5.50
2019-04-11T20:18:51.704Z,5.50
2019-04-11T20:21:20.910Z,5.50
2019-04-11T20:23:49.033Z,5.28
2019-04-11T20:26:20.098Z,5.00
2019-04-11T20:28:48.209Z,5.25
2019-04-11T20:31:17.083Z,5.30
2019-04-11T20:33:45.205Z,5.15
2019-04-11T20:36:13.370Z,5.45
2019-04-11T20:38:41.502Z,5.33
2019-04-11T20:41:09.792Z,4.92
2019-04-11T20:43:39.068Z,4.92
2019-04-11T20:46:07.235Z,5.15
2019-04-11T20:48:36.507Z,5.20
2019-04-11T20:51:05.887Z,5.28
2019-04-11T20:53:37.539Z,5.50
2019-04-11T20:56:04.954Z,5.28
2019-04-11T20:58:34.476Z,4.95
2019-04-11T21:01:03.109Z,4.92
2019-04-11T21:03:31.184Z,5.28
2019-04-11T21:06:01.737Z,5.33
2019-04-11T21:08:32.873Z,4.80
2019-04-11T21:10:58.930Z,4.90
2019-04-11T21:13:27.008Z,4.90
2019-04-11T21:15:55.133Z,4.80
2019-04-11T21:18:25.676Z,5.10
2019-04-11T21:20:55.180Z,5.00
2019-04-11T21:23:24.610Z,4.80
2019-04-11T21:25:52.630Z,4.75
2019-04-11T21:28:20.689Z,4.80
2019-04-11T21:30:48.784Z,4.70
2019-04-11T21:33:16.873Z,4.42
2019-04-11T21:35:44.961Z,4.80
2019-04-11T21:38:13.078Z,4.50
2019-04-11T21:40:41.145Z,4.60
2019-04-11T21:43:09.257Z,4.55
2019-04-11T21:45:37.348Z,4.72
2019-04-11T21:48:06.570Z,4.72
2019-04-11T21:50:35.074Z,4.55
2019-04-11T21:53:03.170Z,4.40
2019-04-11T21:55:31.271Z,4.37
2019-04-11T21:57:59.518Z,4.80
2019-04-11T22:00:36.112Z,4.37
2019-04-11T22:03:06.602Z,4.40
2019-04-11T22:05:33.980Z,4.30
2019-04-11T22:08:03.708Z,4.35
2019-04-11T22:10:32.367Z,4.30
2019-04-11T22:13:00.423Z,4.60
2019-04-11T22:15:28.620Z,4.33
2019-04-11T22:17:56.736Z,4.30
2019-04-11T22:20:24.857Z,4.17
2019-04-11T22:22:53.015Z,4.10
2019-04-11T22:25:21.166Z,4.10
2019-04-11T22:27:51.075Z,4.20
2019-04-11T22:30:20.613Z,4.22
2019-04-11T22:32:55.065Z,3.92
2019-04-11T22:35:28.767Z,4.00
2019-04-11T22:37:54.609Z,4.10
2019-04-11T22:40:25.820Z,4.10
2019-04-11T22:42:53.962Z,4.10
2019-04-11T22:45:22.017Z,4.00
2019-04-11T22:47:50.086Z,3.92
2019-04-11T22:50:18.259Z,4.00
2019-04-11T22:52:46.375Z,3.92
2019-04-11T22:55:14.676Z,4.00
2019-04-11T22:57:43.694Z,3.60
2019-04-11T23:00:14.897Z,3.80
2019-04-11T23:03:04.235Z,3.80
2019-04-11T23:05:32.970Z,3.90
2019-04-11T23:08:02.890Z,4.15
2019-04-11T23:10:31.023Z,3.95
2019-04-11T23:12:59.150Z,4.20
2019-04-11T23:15:27.229Z,4.10
2019-04-11T23:17:55.441Z,4.20
2019-04-11T23:20:23.535Z,3.90
2019-04-11T23:22:51.846Z,3.80
2019-04-11T23:25:19.946Z,3.85
2019-04-11T23:27:48.027Z,3.85
2019-04-11T23:30:18.331Z,3.92
2019-04-11T23:32:50.857Z,3.90
2019-04-11T23:35:16.752Z,4.17
2019-04-11T23:37:51.979Z,4.17
2019-04-11T23:40:21.683Z,4.22
2019-04-11T23:42:50.770Z,4.30
2019-04-11T23:45:21.773Z,4.00
2019-04-11T23:47:53.211Z,4.20
2019-04-11T23:50:19.705Z,4.03
2019-04-11T23:52:47.979Z,3.95
2019-04-11T23:55:16.101Z,4.00
2019-04-11T23:57:44.301Z,4.00
